CDT,Max TemperatureF,Mean TemperatureF,Min TemperatureF,Max Dew PointF,MeanDew PointF,Min DewpointF,Max Humidity, Mean Humidity, Min Humidity, Max Sea Level PressureIn, Mean Sea Level PressureIn, Min Sea Level PressureIn, Max VisibilityMiles, Mean VisibilityMiles, Min VisibilityMiles, Max Wind SpeedMPH, Mean Wind SpeedMPH, Max Gust SpeedMPH,PrecipitationIn, CloudCover, Events, WindDirDegrees
2013-9-1,83,75,67,72,68,64,93,79,65,29.94,29.87,29.82,10,9,1,18,6,30,0.71,3,Rain-Thunderstorm,212
2013-9-2,89,79,68,73,70,66,97,76,55,29.92,29.88,29.82,10,8,1,15,3,20,T,1,Thunderstorm,240
2013-9-3,87,76,65,69,64,60,93,69,44,30.05,29.98,29.91,10,10,10,12,4,16,0.00,1,,345
2013-9-4,84,72,59,63,61,59,97,71,44,30.14,30.10,30.04,10,10,7,9,1,15,0.00,0,,30
2013-9-5,84,70,57,63,60,57,100,77,44,30.19,30.15,30.12,10,7,0,8,1,,0.00,0,Fog,49
2013-9-6,87,73,60,67,63,58,96,76,46,30.17,30.12,30.07,10,8,0,8,1,,0.01,0,Fog,119
2013-9-7,89,74,61,70,64,60,100,83,45,30.10,30.05,29.98,10,5,0,9,1,,0.00,0,Fog,231
2013-9-8,91,79,68,71,68,66,96,84,46,30.01,29.98,29.92,10,5,0,6,1,,0.00,1,Fog,117
2013-9-9,89,81,72,74,71,69,93,78,59,30.04,30.00,29.97,10,8,4,9,3,14,0.10,1,Rain,180
2013-9-10,89,80,70,73,70,65,94,75,56,30.15,30.11,30.05,10,8,4,18,4,25,0.00,0,,161
2013-9-11,88,79,69,74,70,67,100,82,63,30.19,30.14,30.07,10,7,2,16,3,21,0.04,1,Rain-Thunderstorm,154
2013-9-12,90,79,68,73,70,66,100,80,59,30.07,30.01,29.92,10,5,0,21,4,31,0.47,2,Fog-Rain-Thunderstorm,293
2013-9-13,77,66,55,65,55,49,93,68,43,30.05,30.01,29.96,10,10,10,16,7,21,0.00,1,,15
2013-9-14,75,63,51,52,49,46,96,69,41,30.14,30.08,30.05,10,10,10,14,5,20,0.00,0,,52
2013-9-15,81,65,49,59,53,48,93,68,42,30.12,30.09,30.06,10,6,0,13,3,18,0.00,0,Fog,176
2013-9-16,79,68,57,64,61,56,100,78,56,30.18,30.15,30.10,10,9,7,10,3,14,T,5,Rain,21
2013-9-17,83,73,62,64,62,60,93,70,47,30.21,30.15,30.09,10,9,5,9,3,13,0.00,2,,77
2013-9-18,82,74,65,69,66,63,97,82,67,30.15,30.10,30.05,10,8,4,14,4,17,0.00,2,,183
2013-9-19,87,76,65,68,67,64,93,73,53,30.12,30.05,29.99,10,9,4,15,4,18,0.00,0,,189
2013-9-20,84,75,66,72,68,64,100,82,63,30.00,29.88,29.80,10,5,1,13,5,16,2.67,6,Rain,320
2013-9-21,75,65,55,67,59,49,100,72,44,29.89,29.83,29.77,10,9,2,21,8,29,0.22,5,Rain,345
2013-9-22,76,63,50,52,50,48,93,66,38,29.98,29.93,29.88,10,10,10,13,4,16,0.00,0,,35
2013-9-23,79,64,49,57,53,48,93,68,42,30.02,29.97,29.94,10,10,10,8,3,13,0.00,0,,87
2013-9-24,82,69,55,67,59,54,100,73,45,30.00,29.93,29.84,10,6,1,12,4,14,0.13,3,Rain,118
2013-9-25,80,71,61,66,64,61,93,74,54,29.88,29.84,29.81,10,9,3,12,3,14,0.00,4,,105
2013-9-26,82,70,58,64,60,57,100,75,49,30.03,29.94,29.87,10,4,0,9,3,14,0.00,2,Fog,78
2013-9-27,82,67,51,61,55,50,100,71,42,30.13,30.07,30.03,10,6,0,8,1,13,0.00,0,Fog,92
2013-9-28,80,69,58,59,57,55,97,71,45,30.17,30.10,30.06,10,9,6,17,5,21,0.00,2,,163
2013-9-29,67,62,57,63,60,55,100,87,73,30.09,30.04,30.00,10,8,2,13,3,16,0.14,6,Rain,181
2013-9-30,77,70,63,63,61,60,100,80,60,30.03,30.00,29.96,10,10,5,15,5,18,0.00,8,,182